Bangui, Central African Republic
Current Conditions -  °F | °C
As of 7:00 PM on Friday 24 Oct 2014 (Local Time) from FEFF Reporting Station
Thunderstorm Thunderstorm  
Wind Chill: 24°   Ceiling: 1600
Heat Index: 24°   Visibility: 5mi
Dew Point: 22°   Wind: 2mph
Humidity: 89%   Direction: NA
Pressure: 29.83"   Gusts: NA
Location:  4.36°N, 18.56°E
Report Text: FEFF 241800Z VRB02KT 8000 TS BKN016 FEW040CB BKN300 24/22 Q1010 NOSIG
Loading
Personal Weather Stations






























Interactive Weather Map
Tropical Storm Tracking
New forecast layout! Learn more

10-Day Weather Forecast

Advertisements
Track Severe Weather on mobile